Time;durP1;ratioP1;P1;durP2;ratioP2;P2;SDS_P1;SDS_P2;PMS_P1;PMS_P2;Temp;Humidity;BMP_temperature;BMP_pressure;BME280_temperature;BME280_humidity;BME280_pressure;Samples;Min_cycle;Max_cycle;Signal;HPM_P1;HPM_P2
2023/04/14 00:01:52;;;;;;;2.72;2.05;;;;;;;19.45;47.81;95830.72;10558192;28;20048;-48
2023/04/14 00:07:12;;;;;;;2.30;1.90;;;;;;;19.44;47.74;95821.03;10558095;28;20118;-48
2023/04/14 00:12:32;;;;;;;3.10;2.00;;;;;;;19.43;47.88;95843.78;10557936;28;20047;-49
2023/04/14 00:17:51;;;;;;;2.00;1.80;;;;;;;19.43;47.91;95845.72;10557674;28;20036;-48
2023/04/14 00:23:11;;;;;;;2.72;1.90;;;;;;;19.43;47.76;95848.41;10543916;28;20052;-47
2023/04/14 00:28:30;;;;;;;2.10;1.60;;;;;;;19.42;47.72;95863.81;10557258;28;20447;-49
2023/04/14 00:33:49;;;;;;;2.38;1.83;;;;;;;19.39;47.74;95867.22;10557073;28;20105;-47
2023/04/14 00:39:09;;;;;;;3.15;1.80;;;;;;;19.40;47.69;95862.59;10556856;28;20043;-46
2023/04/14 00:44:29;;;;;;;2.35;1.60;;;;;;;19.38;47.78;95862.94;10556479;28;20040;-47
2023/04/14 00:49:49;;;;;;;2.10;1.90;;;;;;;19.38;47.66;95857.53;10556445;28;20097;-46
2023/04/14 00:55:09;;;;;;;2.90;1.90;;;;;;;19.37;47.75;95855.97;10556225;28;20050;-49
2023/04/14 01:00:29;;;;;;;2.00;1.67;;;;;;;19.36;47.58;95849.00;10542303;28;20113;-50
2023/04/14 01:05:50;;;;;;;2.03;1.70;;;;;;;19.35;47.76;95842.03;10526654;28;20105;-48
2023/04/14 01:11:13;;;;;;;1.92;1.50;;;;;;;19.34;47.52;95835.06;10555540;28;20055;-48
2023/04/14 01:16:34;;;;;;;2.40;1.50;;;;;;;19.33;47.49;95825.41;10539858;28;20436;-48
2023/04/14 01:21:56;;;;;;;2.00;1.80;;;;;;;19.33;47.40;95822.69;10541555;28;20055;-47
2023/04/14 01:27:34;;;;;;;2.10;1.58;;;;;;;19.32;47.56;95815.72;10526032;28;20044;-47
2023/04/14 01:32:55;;;;;;;3.40;1.70;;;;;;;19.30;47.52;95820.66;10525311;28;20051;-46
2023/04/14 01:38:28;;;;;;;1.90;1.50;;;;;;;19.29;47.50;95819.13;10539207;28;20047;-49
2023/04/14 01:43:50;;;;;;;2.10;1.70;;;;;;;19.30;47.51;95807.16;10554158;28;20130;-47
2023/04/14 01:49:11;;;;;;;2.00;1.40;;;;;;;19.28;47.52;95814.84;10554045;28;20050;-48
2023/04/14 01:54:31;;;;;;;1.60;1.45;;;;;;;19.28;47.46;95817.53;10538703;28;20048;-46
2023/04/14 01:59:54;;;;;;;1.40;1.30;;;;;;;19.27;47.48;95816.75;10526303;28;20404;-50
2023/04/14 02:05:14;;;;;;;2.47;1.60;;;;;;;19.25;47.45;95810.13;10538317;28;20040;-49
2023/04/14 02:10:38;;;;;;;1.90;1.67;;;;;;;19.26;47.48;95811.69;10538468;28;20044;-47
2023/04/14 02:15:59;;;;;;;1.52;1.40;;;;;;;19.24;47.34;95825.53;10537337;28;20065;-48
2023/04/14 02:21:19;;;;;;;1.85;1.55;;;;;;;19.23;47.37;95815.88;10552964;28;20040;-48
2023/04/14 02:26:44;;;;;;;1.80;1.40;;;;;;;19.22;47.50;95814.31;10537698;28;20040;-49
2023/04/14 02:32:05;;;;;;;1.50;1.40;;;;;;;19.22;47.43;95816.22;10552857;28;20419;-47
2023/04/14 02:37:30;;;;;;;1.20;1.10;;;;;;;19.21;47.39;95806.53;10552776;28;20578;-47
2023/04/14 02:42:54;;;;;;;1.98;1.35;;;;;;;19.19;47.40;95796.09;10537399;28;20047;-46
2023/04/14 02:48:15;;;;;;;1.88;1.40;;;;;;;19.19;47.37;95804.22;10523188;28;20051;-46
2023/04/14 02:53:35;;;;;;;1.40;1.30;;;;;;;19.19;47.33;95795.31;10523280;28;20040;-47
2023/04/14 02:59:06;;;;;;;1.42;1.33;;;;;;;19.16;47.34;95792.16;10514473;28;20052;-47
2023/04/14 03:04:31;;;;;;;1.20;1.10;;;;;;;19.17;47.46;95787.56;10522972;28;20105;-46
2023/04/14 03:09:52;;;;;;;1.85;1.33;;;;;;;19.15;47.23;95777.09;10536885;28;20408;-49
2023/04/14 03:15:13;;;;;;;1.80;1.27;;;;;;;19.15;47.33;95776.31;10536769;28;20043;-49
2023/04/14 03:20:32;;;;;;;1.58;1.42;;;;;;;19.14;47.26;95766.66;10551837;28;20487;-46
2023/04/14 03:25:54;;;;;;;1.40;1.20;;;;;;;19.13;47.25;95770.47;10524887;28;20047;-47
2023/04/14 03:31:19;;;;;;;1.42;1.20;;;;;;;19.11;47.25;95754.63;10544243;28;20047;-47
2023/04/14 03:36:45;;;;;;;1.95;1.35;;;;;;;19.11;47.31;95751.13;10545036;28;20040;-46
2023/04/14 03:42:10;;;;;;;1.75;1.40;;;;;;;19.10;47.21;95749.56;10544040;28;20039;-48
2023/04/14 03:47:30;;;;;;;1.25;1.02;;;;;;;19.09;47.24;95748.00;10530067;28;20040;-49
2023/04/14 03:52:50;;;;;;;1.23;1.10;;;;;;;19.08;47.33;95744.53;10543444;28;20054;-46
2023/04/14 03:58:11;;;;;;;1.20;0.95;;;;;;;19.07;47.14;95748.38;10535786;28;20059;-47
2023/04/14 04:03:33;;;;;;;1.25;1.15;;;;;;;19.07;47.31;95742.16;10528970;28;20408;-47
2023/04/14 04:08:54;;;;;;;1.58;1.10;;;;;;;19.06;47.39;95752.19;10528739;28;20051;-49
2023/04/14 04:14:16;;;;;;;1.10;1.00;;;;;;;19.05;47.20;95741.72;10529236;28;20067;-47
2023/04/14 04:19:39;;;;;;;1.20;1.10;;;;;;;19.05;47.13;95756.03;10528478;28;20040;-47
2023/04/14 04:24:59;;;;;;;1.85;1.20;;;;;;;19.06;47.88;95759.50;10542231;28;20044;-47
2023/04/14 04:30:24;;;;;;;2.70;1.30;;;;;;;19.08;47.95;95762.63;10557268;28;20054;-47
2023/04/14 04:35:44;;;;;;;2.97;1.10;;;;;;;19.08;48.18;95754.53;10556976;28;20170;-47
2023/04/14 04:41:04;;;;;;;1.20;1.10;;;;;;;19.10;48.04;95753.06;10541035;28;20043;-46
2023/04/14 04:46:27;;;;;;;2.38;1.00;;;;;;;19.11;48.26;95754.63;10556601;28;20048;-49
2023/04/14 04:51:47;;;;;;;3.47;1.27;;;;;;;19.14;48.54;95758.56;10541002;28;20048;-48
2023/04/14 04:57:09;;;;;;;1.38;1.23;;;;;;;19.16;48.57;95757.06;10536312;28;20052;-46
2023/04/14 05:02:28;;;;;;;1.88;1.33;;;;;;;19.19;48.59;95762.91;10555873;28;20039;-49
2023/04/14 05:07:47;;;;;;;1.65;1.20;;;;;;;19.21;48.54;95753.34;10555514;28;20442;-49
2023/04/14 05:13:07;;;;;;;1.55;1.17;;;;;;;19.25;48.69;95748.00;10555524;28;20051;-47
2023/04/14 05:18:27;;;;;;;1.70;1.30;;;;;;;19.27;48.67;95743.84;10555345;28;20043;-49
2023/04/14 05:23:47;;;;;;;5.03;4.15;;;;;;;18.83;41.13;95743.06;10554906;28;20105;-48
2023/04/14 05:29:06;;;;;;;4.18;3.20;;;;;;;18.74;43.00;95740.53;10541277;28;20052;-47
2023/04/14 05:34:25;;;;;;;1.77;1.60;;;;;;;18.94;45.25;95744.16;10554592;28;20051;-48
2023/04/14 05:39:45;;;;;;;2.40;1.98;;;;;;;19.06;44.89;95749.47;10554146;28;20484;-48
2023/04/14 05:45:05;;;;;;;2.70;2.00;;;;;;;19.15;44.65;95746.59;10554300;28;20040;-50
2023/04/14 05:50:26;;;;;;;2.38;1.80;;;;;;;19.21;44.59;95733.63;10553656;28;20090;-47
2023/04/14 05:55:47;;;;;;;2.17;1.98;;;;;;;19.26;44.76;95736.09;10553246;28;20048;-47
2023/04/14 06:01:06;;;;;;;2.42;1.67;;;;;;;19.30;44.69;95723.47;10553541;28;20041;-48
2023/04/14 06:06:26;;;;;;;2.50;1.80;;;;;;;19.36;44.84;95730.16;10538198;28;20082;-49
2023/04/14 06:11:46;;;;;;;2.20;2.00;;;;;;;19.42;44.94;95717.97;10553335;28;20052;-47
2023/04/14 06:17:05;;;;;;;2.22;1.60;;;;;;;19.45;45.05;95719.97;10539807;28;20125;-48
2023/04/14 06:22:28;;;;;;;2.05;1.60;;;;;;;19.50;45.21;95703.53;10553012;28;20046;-47
2023/04/14 06:27:47;;;;;;;1.92;1.50;;;;;;;19.54;45.25;95704.38;10552935;28;20389;-50
2023/04/14 06:33:07;;;;;;;1.90;1.65;;;;;;;19.59;45.31;95706.03;10552808;28;20051;-48
2023/04/14 06:38:26;;;;;;;1.75;1.50;;;;;;;19.62;45.14;95699.13;10539230;28;20063;-47
2023/04/14 06:43:46;;;;;;;2.38;1.52;;;;;;;19.65;45.59;95690.34;10552402;28;20040;-49
2023/04/14 06:55:59;;;;;;;2.10;1.55;;;;;;;19.73;45.74;95673.94;8660039;26;20077;-79
2023/04/14 07:01:18;;;;;;;1.88;1.35;;;;;;;19.78;45.76;95667.50;10361350;28;20452;-78
2023/04/14 07:06:38;;;;;;;1.92;1.50;;;;;;;19.81;45.75;95666.00;10366019;28;20068;-78
2023/04/14 07:11:58;;;;;;;2.08;1.33;;;;;;;19.82;45.46;95671.06;10352378;28;20050;-78
2023/04/14 07:17:18;;;;;;;1.48;1.25;;;;;;;19.85;45.43;95662.22;10366242;28;20049;-79
2023/04/14 07:22:38;;;;;;;1.48;1.00;;;;;;;19.89;45.25;95663.09;10378517;28;20457;-80
2023/04/14 07:27:57;;;;;;;3.40;1.10;;;;;;;19.92;45.21;95667.81;10378174;28;20045;-72
2023/04/14 07:33:21;;;;;;;2.28;1.30;;;;;;;19.98;44.98;95670.25;10392722;28;20046;-72
2023/04/14 07:38:41;;;;;;;1.48;1.35;;;;;;;19.99;44.71;95675.28;10378072;28;20045;-72
2023/04/14 07:44:00;;;;;;;1.42;1.33;;;;;;;20.01;44.50;95678.41;10377376;28;20072;-72
2023/04/14 07:49:20;;;;;;;2.90;1.77;;;;;;;20.05;44.04;95667.66;10377053;28;20050;-72
2023/04/14 07:54:39;;;;;;;2.63;1.40;;;;;;;20.07;43.95;95674.31;10368971;28;20061;-72
2023/04/14 07:59:59;;;;;;;3.05;1.50;;;;;;;20.10;43.75;95670.88;10362988;28;20052;-72
2023/04/14 08:05:18;;;;;;;2.00;1.45;;;;;;;20.14;43.37;95660.13;10391250;28;20065;-72
2023/04/14 08:10:40;;;;;;;4.53;1.40;;;;;;;20.17;43.27;95658.63;10375974;28;20383;-71
2023/04/14 08:16:00;;;;;;;3.53;1.20;;;;;;;20.19;43.14;95662.56;10361915;28;20486;-72
2023/04/14 08:21:19;;;;;;;4.20;1.58;;;;;;;20.22;42.97;95658.38;10362072;28;20130;-72
2023/04/14 08:26:39;;;;;;;1.88;1.40;;;;;;;20.24;42.03;95667.69;10376848;28;20042;-72
2023/04/14 08:31:59;;;;;;;1.95;1.33;;;;;;;20.27;42.46;95660.78;10375572;28;20050;-72
2023/04/14 08:37:21;;;;;;;1.92;1.40;;;;;;;20.28;42.33;95649.59;10375140;28;20042;-72
2023/04/14 08:42:41;;;;;;;2.03;1.20;;;;;;;20.30;42.29;95647.31;10361549;28;20523;-72
2023/04/14 08:48:04;;;;;;;5.85;1.60;;;;;;;20.34;42.17;95650.09;10361036;28;20100;-72
2023/04/14 08:53:26;;;;;;;1.85;1.20;;;;;;;20.35;42.10;95643.56;10370051;28;20062;-71
2023/04/14 08:58:46;;;;;;;2.20;1.30;;;;;;;20.39;42.01;95644.41;10374090;28;20485;-71
2023/04/14 09:04:06;;;;;;;2.65;1.30;;;;;;;20.42;42.26;95653.72;10360517;28;20041;-72
2023/04/14 09:09:26;;;;;;;4.07;2.63;;;;;;;20.44;45.93;95651.44;10388924;28;20053;-72
2023/04/14 09:14:47;;;;;;;2.90;2.00;;;;;;;20.47;45.24;95648.03;10373623;28;20050;-72
2023/04/14 09:20:07;;;;;;;3.22;2.65;;;;;;;20.50;45.87;95660.84;10373596;28;20237;-71
2023/04/14 09:25:26;;;;;;;2.53;1.80;;;;;;;20.54;46.16;95661.69;10372858;28;20482;-71
2023/04/14 09:30:46;;;;;;;3.13;1.60;;;;;;;20.57;45.55;95654.78;10373185;28;20050;-72
2023/04/14 09:36:17;;;;;;;2.30;1.42;;;;;;;20.60;45.61;95654.88;10387756;28;20046;-72
2023/04/14 09:41:46;;;;;;;3.05;1.48;;;;;;;20.64;46.10;95653.03;10387421;28;20048;-72
2023/04/14 09:47:06;;;;;;;1.50;1.40;;;;;;;20.66;46.48;95649.94;10359061;28;20046;-71
2023/04/14 09:52:43;;;;;;;2.83;1.58;;;;;;;20.69;47.13;95647.31;10357400;28;20510;-72
2023/04/14 09:58:03;;;;;;;2.58;1.80;;;;;;;20.71;48.85;95636.13;10372860;28;20041;-71
2023/04/14 10:03:33;;;;;;;2.20;1.40;;;;;;;20.73;48.47;95636.56;10358692;28;20044;-72
2023/04/14 10:08:54;;;;;;;3.65;1.70;;;;;;;20.77;48.66;95640.09;10358718;28;20133;-72
2023/04/14 10:14:16;;;;;;;2.67;1.63;;;;;;;20.79;48.78;95637.03;10358427;28;20053;-72
2023/04/14 10:19:37;;;;;;;3.15;1.25;;;;;;;20.81;48.63;95632.03;10358645;28;20056;-72
2023/04/14 10:24:58;;;;;;;2.42;1.20;;;;;;;20.82;48.80;95620.09;10358233;28;20046;-71
2023/04/14 10:30:17;;;;;;;3.38;1.23;;;;;;;20.81;48.44;95615.81;10371703;28;20050;-72
2023/04/14 10:35:40;;;;;;;2.88;1.25;;;;;;;20.79;48.32;95607.25;10385596;28;20037;-72
2023/04/14 10:41:00;;;;;;;4.35;1.40;;;;;;;20.73;44.24;95604.84;10371404;28;20050;-72
2023/04/14 10:46:20;;;;;;;2.83;1.23;;;;;;;20.76;47.32;95607.97;10357187;28;20061;-72
2023/04/14 10:51:40;;;;;;;3.30;0.90;;;;;;;20.76;47.72;95597.16;10357668;28;20414;-72
2023/04/14 10:57:14;;;;;;;3.60;1.33;;;;;;;20.76;47.58;95592.53;10371127;28;20386;-71
2023/04/14 11:02:33;;;;;;;1.33;1.23;;;;;;;20.76;47.67;95587.13;10371365;28;20053;-71
2023/04/14 11:07:55;;;;;;;2.30;1.30;;;;;;;20.77;47.81;95579.78;10370690;28;20042;-72
2023/04/14 11:13:14;;;;;;;1.65;1.20;;;;;;;20.77;47.46;95574.38;10370775;28;20041;-72
2023/04/14 11:18:41;;;;;;;3.80;1.00;;;;;;;20.78;47.68;95573.22;10357077;28;20128;-73
2023/04/14 11:24:00;;;;;;;1.50;1.40;;;;;;;20.80;47.32;95565.53;10370979;28;20046;-73
2023/04/14 11:29:20;;;;;;;3.22;1.40;;;;;;;20.78;47.37;95570.50;10356949;28;20052;-73
2023/04/14 11:34:40;;;;;;;2.40;1.10;;;;;;;20.77;47.50;95560.84;10370329;28;20056;-73
2023/04/14 11:39:59;;;;;;;2.13;1.20;;;;;;;20.76;47.29;95560.06;10356335;28;20452;-73
2023/04/14 11:45:19;;;;;;;2.88;1.00;;;;;;;20.77;47.31;95560.84;10370324;28;20041;-73
2023/04/14 11:50:38;;;;;;;4.93;1.00;;;;;;;20.76;46.92;95561.97;10377582;28;20038;-73
2023/04/14 11:55:59;;;;;;;2.00;1.23;;;;;;;20.75;46.91;95561.19;10380730;28;20097;-73
2023/04/14 12:01:23;;;;;;;1.13;1.02;;;;;;;20.74;46.77;95562.34;10363380;28;20490;-73
2023/04/14 12:06:42;;;;;;;0.80;0.80;;;;;;;20.73;46.63;95553.44;10376805;28;20046;-73
2023/04/14 12:12:07;;;;;;;5.45;1.00;;;;;;;20.72;46.87;95549.16;10391495;28;20103;-73
2023/04/14 12:17:27;;;;;;;3.97;0.80;;;;;;;20.72;47.02;95546.47;10376687;28;20046;-72
2023/04/14 12:22:48;;;;;;;1.27;0.90;;;;;;;20.71;47.10;95544.88;10362474;28;20379;-72
2023/04/14 12:28:08;;;;;;;1.70;1.00;;;;;;;20.72;46.98;95548.41;10376115;28;20115;-72
2023/04/14 12:33:29;;;;;;;1.90;0.90;;;;;;;20.68;46.39;95552.94;10376156;28;20057;-73
2023/04/14 12:38:48;;;;;;;2.13;0.93;;;;;;;20.68;46.60;95555.66;10361938;28;20065;-74
2023/04/14 12:44:14;;;;;;;2.67;0.90;;;;;;;20.68;46.41;95544.81;10375379;28;20038;-74
2023/04/14 12:49:37;;;;;;;2.05;0.80;;;;;;;20.67;46.42;95554.88;10361475;28;20052;-73
2023/04/14 12:54:57;;;;;;;2.47;1.42;;;;;;;20.67;46.24;95556.81;10366744;28;20107;-74
2023/04/14 13:00:16;;;;;;;1.13;0.88;;;;;;;20.65;46.27;95549.03;10374207;28;20046;-74
2023/04/14 13:05:36;;;;;;;3.33;0.75;;;;;;;20.65;46.15;95554.47;10374418;28;20046;-73
2023/04/14 13:10:55;;;;;;;3.70;0.90;;;;;;;20.64;46.38;95552.91;10374122;28;20073;-73
2023/04/14 13:16:15;;;;;;;1.05;0.93;;;;;;;20.64;46.41;95558.31;10360467;28;20045;-73
2023/04/14 13:21:35;;;;;;;1.30;0.85;;;;;;;20.62;46.59;95552.50;10374153;28;20046;-73
2023/04/14 13:26:55;;;;;;;1.67;1.05;;;;;;;20.61;46.59;95556.31;10360028;28;20041;-73
2023/04/14 13:32:14;;;;;;;2.50;0.80;;;;;;;20.60;46.80;95546.66;10360157;28;20045;-73
2023/04/14 13:37:34;;;;;;;0.90;0.82;;;;;;;20.58;45.38;95551.63;10346201;28;20390;-72
2023/04/14 13:42:54;;;;;;;1.08;0.98;;;;;;;20.58;46.59;95557.03;10373070;28;20045;-72
2023/04/14 13:48:13;;;;;;;1.55;0.80;;;;;;;20.57;47.02;95541.94;10372595;28;20044;-72
2023/04/14 13:53:33;;;;;;;1.48;1.02;;;;;;;20.57;47.37;95541.94;10368388;28;20061;-71
2023/04/14 13:58:53;;;;;;;3.55;0.98;;;;;;;20.57;47.46;95544.63;10358620;28;20045;-72
2023/04/14 14:04:12;;;;;;;1.45;0.80;;;;;;;20.57;47.72;95544.63;10345140;28;20053;-75
2023/04/14 14:09:32;;;;;;;2.53;0.90;;;;;;;20.55;47.73;95544.97;10372161;28;20486;-72
2023/04/14 14:14:51;;;;;;;1.45;1.02;;;;;;;20.55;47.78;95536.88;10372112;28;20073;-74
2023/04/14 14:20:11;;;;;;;3.40;1.10;;;;;;;20.54;47.93;95537.22;10372034;28;20041;-73
2023/04/14 14:25:31;;;;;;;3.83;0.98;;;;;;;20.55;48.38;95544.22;10371961;28;20050;-72
2023/04/14 14:30:50;;;;;;;2.45;0.93;;;;;;;20.54;48.41;95542.63;10357668;28;20046;-73
2023/04/14 14:36:10;;;;;;;2.75;0.80;;;;;;;20.53;48.69;95546.50;10371568;28;20482;-74
2023/04/14 14:41:30;;;;;;;4.45;0.90;;;;;;;20.50;48.67;95542.59;10371575;28;20038;-73
2023/04/14 14:46:51;;;;;;;2.50;0.82;;;;;;;20.49;49.03;95540.25;10357198;28;20560;-73
2023/04/14 14:52:10;;;;;;;1.10;0.90;;;;;;;20.49;49.18;95542.94;10356892;28;20050;-74
2023/04/14 14:57:30;;;;;;;4.32;0.88;;;;;;;20.48;49.23;95552.19;10371160;28;20473;-74
2023/04/14 15:02:49;;;;;;;1.75;0.85;;;;;;;20.47;49.40;95542.53;10357640;28;20042;-74
2023/04/14 15:08:09;;;;;;;5.68;1.00;;;;;;;20.47;49.42;95542.53;10371012;28;20050;-72
2023/04/14 15:13:28;;;;;;;3.20;0.75;;;;;;;20.47;49.56;95545.25;10370844;28;20057;-73
2023/04/14 15:18:48;;;;;;;3.50;0.80;;;;;;;20.43;48.90;95537.06;10371037;28;20046;-71
2023/04/14 15:24:08;;;;;;;4.80;0.80;;;;;;;20.43;49.54;95536.28;10376208;28;20038;-73
2023/04/14 15:29:29;;;;;;;2.70;0.70;;;;;;;20.43;49.79;95534.34;10364538;28;20096;-73
2023/04/14 15:34:48;;;;;;;0.73;0.52;;;;;;;20.44;49.84;95529.72;10351073;28;20104;-73
2023/04/14 15:40:09;;;;;;;2.15;0.73;;;;;;;20.44;49.79;95532.41;10377812;28;20037;-73
2023/04/14 15:45:28;;;;;;;3.13;0.88;;;;;;;20.43;50.21;95536.28;10363966;28;20046;-73
2023/04/14 15:50:48;;;;;;;5.40;1.20;;;;;;;20.44;50.99;95532.41;10377731;28;20046;-74
2023/04/14 15:56:07;;;;;;;5.13;1.30;;;;;;;20.42;52.19;95538.19;10380034;23;20069;-56
2023/04/14 16:01:26;;;;;;;5.63;1.10;;;;;;;20.43;52.44;95536.28;10392721;28;20048;-55
2023/04/14 16:06:46;;;;;;;3.72;0.85;;;;;;;20.41;53.18;95543.97;10392749;28;20490;-60
2023/04/14 16:12:05;;;;;;;2.88;1.10;;;;;;;20.41;53.89;95543.97;10392502;28;20108;-55
2023/04/14 16:17:25;;;;;;;3.35;1.20;;;;;;;20.42;53.65;95540.88;10392322;28;20401;-56
2023/04/14 16:22:45;;;;;;;13.77;3.03;;;;;;;20.42;53.91;95543.59;10376960;28;20106;-56
2023/04/14 16:28:05;;;;;;;5.60;1.60;;;;;;;20.41;54.01;95533.16;10391369;28;20046;-56
2023/04/14 16:33:24;;;;;;;3.45;1.42;;;;;;;20.41;53.67;95538.56;10377272;28;20058;-56
2023/04/14 16:38:44;;;;;;;5.70;1.60;;;;;;;20.40;53.42;95529.66;10391233;28;20045;-56
2023/04/14 16:44:04;;;;;;;5.25;1.42;;;;;;;20.39;53.14;95530.03;10391004;28;20048;-56
2023/04/14 16:49:24;;;;;;;6.18;1.60;;;;;;;20.37;53.05;95537.72;10390970;28;20042;-55
2023/04/14 16:54:43;;;;;;;3.80;1.13;;;;;;;20.36;53.14;95531.50;10390647;28;20108;-56
2023/04/14 17:00:05;;;;;;;6.38;1.42;;;;;;;20.36;53.18;95531.50;10377486;28;20064;-55
2023/04/14 17:05:24;;;;;;;4.05;1.40;;;;;;;20.35;53.03;95536.16;10390014;28;20513;-55
2023/04/14 17:10:44;;;;;;;4.78;1.55;;;;;;;20.35;53.22;95524.56;10390174;28;20100;-56
2023/04/14 17:16:04;;;;;;;4.00;1.52;;;;;;;20.33;53.11;95529.53;10389918;28;20046;-56
2023/04/14 17:21:26;;;;;;;1.90;1.05;;;;;;;20.30;53.06;95517.50;10389605;28;20406;-56
2023/04/14 17:26:45;;;;;;;2.92;1.15;;;;;;;20.31;52.91;95521.00;10389454;28;20520;-55
2023/04/14 17:32:05;;;;;;;2.20;1.17;;;;;;;20.30;53.01;95520.22;10376226;28;20050;-57
2023/04/14 17:37:27;;;;;;;3.33;1.00;;;;;;;20.29;53.06;95526.78;10374058;28;20425;-56
2023/04/14 17:42:46;;;;;;;6.20;1.40;;;;;;;20.28;52.19;95522.50;10388726;28;20046;-56
2023/04/14 17:48:05;;;;;;;4.20;1.83;;;;;;;20.24;49.97;95524.34;10388014;28;20052;-55
2023/04/14 17:53:26;;;;;;;2.63;1.20;;;;;;;20.24;51.07;95526.28;10388201;28;20053;-55
2023/04/14 17:58:46;;;;;;;3.15;1.30;;;;;;;20.22;52.83;95526.63;10362846;28;20061;-55
2023/04/14 18:04:05;;;;;;;2.88;1.10;;;;;;;20.21;52.64;95524.28;10375117;28;20076;-55
2023/04/14 18:09:25;;;;;;;2.67;1.10;;;;;;;20.21;52.70;95519.69;10373139;28;20076;-55
2023/04/14 18:14:45;;;;;;;2.42;0.90;;;;;;;20.19;52.34;95513.84;10387650;28;20121;-55
2023/04/14 18:20:05;;;;;;;2.10;1.05;;;;;;;20.19;52.16;95518.44;10387653;28;20121;-55
2023/04/14 18:25:25;;;;;;;5.13;1.40;;;;;;;20.18;51.92;95525.78;10387449;28;20045;-55
2023/04/14 18:30:54;;;;;;;3.05;1.10;;;;;;;20.18;51.91;95523.09;10387438;28;20057;-55
2023/04/14 18:36:14;;;;;;;3.08;1.42;;;;;;;20.17;51.84;95518.84;10387188;28;20498;-56
2023/04/14 18:41:33;;;;;;;5.93;1.30;;;;;;;20.15;52.00;95516.47;10387044;28;20045;-56
2023/04/14 18:46:55;;;;;;;4.15;1.33;;;;;;;20.13;51.86;95515.25;10386833;28;20115;-55
2023/04/14 18:52:15;;;;;;;3.70;1.15;;;;;;;20.12;51.86;95516.41;10386875;28;20053;-55
2023/04/14 18:57:35;;;;;;;3.38;1.20;;;;;;;20.11;51.96;95509.44;10368421;28;20061;-56
2023/04/14 19:02:56;;;;;;;4.50;1.55;;;;;;;20.11;51.84;95509.44;10394874;28;20046;-54
2023/04/14 19:08:16;;;;;;;2.80;1.20;;;;;;;20.08;51.36;95502.81;10381769;28;20062;-54
2023/04/14 19:13:35;;;;;;;3.78;1.33;;;;;;;20.06;52.23;95502.41;10394532;28;20129;-55
2023/04/14 19:18:55;;;;;;;3.72;1.23;;;;;;;20.06;51.85;95501.63;10394232;28;20041;-58
2023/04/14 19:24:15;;;;;;;5.05;1.40;;;;;;;20.07;52.32;95495.06;10394153;28;20038;-57
2023/04/14 19:29:35;;;;;;;3.83;1.58;;;;;;;20.06;52.57;95497.00;10380930;28;20065;-58
2023/04/14 19:34:55;;;;;;;2.42;1.02;;;;;;;20.06;52.57;95493.53;10393610;28;20100;-57
2023/04/14 19:40:15;;;;;;;2.65;1.25;;;;;;;20.05;52.84;95478.44;10393502;28;20057;-57
2023/04/14 19:45:34;;;;;;;4.72;1.30;;;;;;;20.05;52.87;95467.63;10393132;28;20470;-58
2023/04/14 19:50:54;;;;;;;3.13;1.33;;;;;;;20.04;52.74;95466.06;10393189;28;20038;-55
2023/04/14 19:56:13;;;;;;;3.25;1.30;;;;;;;20.04;53.05;95466.06;10388365;28;20409;-55
2023/04/14 20:01:32;;;;;;;2.15;1.08;;;;;;;20.03;53.15;95459.88;10396289;28;20405;-55
2023/04/14 20:06:54;;;;;;;2.65;1.15;;;;;;;20.03;52.79;95462.59;10363493;28;20050;-57
2023/04/14 20:12:14;;;;;;;2.72;1.20;;;;;;;20.02;53.36;95462.94;10390720;28;20108;-57
2023/04/14 20:17:34;;;;;;;3.88;1.38;;;;;;;20.02;53.31;95460.25;10392039;28;20048;-56
2023/04/14 20:22:54;;;;;;;2.05;0.85;;;;;;;20.00;53.44;95462.53;10376501;28;20084;-57
2023/04/14 20:28:18;;;;;;;2.22;1.08;;;;;;;19.99;53.43;95456.31;10391776;28;20042;-57
2023/04/14 20:33:37;;;;;;;3.15;1.20;;;;;;;19.98;53.49;95457.47;10378166;28;20101;-56
2023/04/14 20:38:57;;;;;;;2.60;1.00;;;;;;;19.98;53.47;95448.59;10391405;28;20042;-57
2023/04/14 20:44:17;;;;;;;2.00;0.90;;;;;;;19.99;53.49;95452.84;10391163;28;20041;-57
2023/04/14 20:49:36;;;;;;;2.03;1.00;;;;;;;19.97;53.51;95444.31;10390947;28;20042;-56
2023/04/14 20:54:56;;;;;;;2.72;1.00;;;;;;;19.95;53.67;95440.06;10390678;28;20046;-56
2023/04/14 21:00:16;;;;;;;2.25;1.00;;;;;;;19.95;53.77;95440.06;10390671;28;20544;-56
2023/04/14 21:05:35;;;;;;;3.78;1.30;;;;;;;19.95;53.71;95436.56;10390399;28;20049;-57
2023/04/14 21:10:55;;;;;;;3.40;1.00;;;;;;;19.94;53.74;95435.00;10375228;28;20042;-56
2023/04/14 21:16:16;;;;;;;3.13;1.00;;;;;;;19.92;53.59;95432.66;10376780;28;20053;-57
2023/04/14 21:21:35;;;;;;;2.25;1.00;;;;;;;19.91;53.88;95428.38;10375649;28;20054;-55
2023/04/14 21:26:55;;;;;;;2.80;1.05;;;;;;;19.92;54.01;95427.25;10389443;28;20042;-55
2023/04/14 21:32:18;;;;;;;4.03;1.02;;;;;;;19.91;53.55;95427.59;10389134;28;20049;-55
2023/04/14 21:37:37;;;;;;;2.72;1.20;;;;;;;19.90;53.93;95424.13;10389051;28;20042;-55
2023/04/14 21:42:57;;;;;;;1.35;0.70;;;;;;;19.89;53.96;95419.84;10375734;28;20046;-51
2023/04/14 21:48:17;;;;;;;2.10;1.02;;;;;;;19.88;53.88;95409.41;10388658;28;20050;-55
2023/04/14 21:53:37;;;;;;;1.48;1.00;;;;;;;19.88;53.86;95418.28;10388536;28;20456;-55
2023/04/14 21:58:56;;;;;;;3.63;1.05;;;;;;;19.87;53.79;95414.00;10377302;28;20054;-56
2023/04/14 22:04:16;;;;;;;1.80;0.95;;;;;;;19.85;53.49;95404.72;10388057;28;20425;-55
2023/04/14 22:09:35;;;;;;;2.17;1.05;;;;;;;19.85;53.64;95402.78;10387958;28;20486;-55
2023/04/14 22:14:54;;;;;;;2.25;1.00;;;;;;;19.84;53.67;95403.16;10387780;28;20057;-56
2023/04/14 22:20:14;;;;;;;3.13;1.15;;;;;;;19.83;53.40;95394.25;10387629;28;20049;-53
2023/04/14 22:25:34;;;;;;;1.90;0.90;;;;;;;19.83;53.73;95402.38;10387548;28;20406;-53
2023/04/14 22:30:54;;;;;;;2.35;0.90;;;;;;;19.83;53.53;95396.19;10386413;28;20042;-53
2023/04/14 22:36:13;;;;;;;1.65;0.90;;;;;;;19.83;53.47;95396.19;10387325;28;20042;-53
2023/04/14 22:41:33;;;;;;;2.97;0.80;;;;;;;19.81;53.52;95391.13;10387679;28;20045;-53
2023/04/14 22:46:53;;;;;;;1.17;0.80;;;;;;;19.80;53.52;95388.78;10387091;28;20406;-53
2023/04/14 22:52:12;;;;;;;1.75;0.90;;;;;;;19.78;53.35;95389.16;10373902;28;20050;-53
2023/04/14 22:57:32;;;;;;;2.15;0.80;;;;;;;19.77;53.43;95387.59;10379743;28;20494;-53
2023/04/14 23:02:51;;;;;;;2.70;1.08;;;;;;;19.77;53.35;95387.59;10386713;28;20049;-53
2023/04/14 23:08:11;;;;;;;2.00;0.88;;;;;;;19.74;53.35;95386.41;10386635;28;20045;-53
2023/04/14 23:13:30;;;;;;;1.35;0.73;;;;;;;19.74;53.17;95383.69;10386465;28;20100;-53
2023/04/14 23:18:51;;;;;;;1.88;0.70;;;;;;;19.73;53.20;95384.06;10386530;28;20421;-53
2023/04/14 23:24:12;;;;;;;1.42;0.77;;;;;;;19.71;53.02;95379.00;10386315;28;20490;-53
2023/04/14 23:29:31;;;;;;;4.38;0.82;;;;;;;19.71;53.13;95378.19;10386258;28;20421;-53
2023/04/14 23:34:51;;;;;;;2.05;0.80;;;;;;;19.69;53.16;95375.84;10386177;28;20050;-53
2023/04/14 23:40:11;;;;;;;1.92;1.00;;;;;;;19.69;53.00;95364.28;10385955;28;20038;-53
2023/04/14 23:45:35;;;;;;;1.52;0.70;;;;;;;19.67;53.08;95361.91;10392087;28;20041;-53
2023/04/14 23:50:55;;;;;;;1.05;0.60;;;;;;;19.68;52.70;95373.50;10393153;28;20064;-53
2023/04/14 23:56:15;;;;;;;2.03;0.88;;;;;;;19.66;52.95;95356.88;10389366;28;20498;-53
